createdAt,value
2018-01-27T00:00:32.293Z,1026.78
2018-01-27T00:01:41.123Z,1026.81
2018-01-27T00:02:49.953Z,1026.75
2018-01-27T00:03:58.785Z,1026.79
2018-01-27T00:05:07.616Z,1026.81
2018-01-27T00:06:16.995Z,1026.81
2018-01-27T00:07:25.826Z,1026.78
2018-01-27T00:08:34.686Z,1026.74
2018-01-27T00:09:43.484Z,1026.73
2018-01-27T00:10:52.316Z,1026.76
2018-01-27T00:12:01.148Z,1026.74
2018-01-27T00:13:09.979Z,1026.72
2018-01-27T00:14:19.081Z,1026.72
2018-01-27T00:15:28.012Z,1026.69
2018-01-27T00:16:36.843Z,1026.69
2018-01-27T00:17:45.673Z,1026.65
2018-01-27T00:18:54.504Z,1026.7
2018-01-27T00:20:03.335Z,1026.67
2018-01-27T00:21:12.445Z,1026.68
2018-01-27T00:22:21.276Z,1026.66
2018-01-27T00:23:30.107Z,1026.65
2018-01-27T00:24:38.936Z,1026.65
2018-01-27T00:25:47.766Z,1026.66
2018-01-27T00:26:56.748Z,1026.64
2018-01-27T00:28:05.579Z,1026.63
2018-01-27T00:29:14.686Z,1026.63
2018-01-27T00:30:23.515Z,1026.64
2018-01-27T00:31:32.346Z,1026.65
2018-01-27T00:32:41.228Z,1026.71
2018-01-27T00:33:50.057Z,1026.73
2018-01-27T00:34:58.885Z,1026.72
2018-01-27T00:36:07.716Z,1026.71
2018-01-27T00:37:16.546Z,1026.66
2018-01-27T00:38:25.375Z,1026.68
2018-01-27T00:39:34.208Z,1026.68
2018-01-27T00:40:43.310Z,1026.71
2018-01-27T00:41:52.140Z,1026.72
2018-01-27T00:43:00.972Z,1026.72
2018-01-27T00:44:10.101Z,1026.73
2018-01-27T00:45:18.931Z,1026.75
2018-01-27T00:46:27.762Z,1026.7
2018-01-27T00:47:36.593Z,1026.72
2018-01-27T00:48:45.421Z,1026.7
2018-01-27T00:49:54.252Z,1026.73
2018-01-27T00:51:03.081Z,1026.68
2018-01-27T00:52:11.913Z,1026.71
2018-01-27T00:53:20.743Z,1026.71
2018-01-27T00:54:29.574Z,1026.72
2018-01-27T00:55:38.454Z,1026.73
2018-01-27T00:56:47.610Z,1026.74
2018-01-27T00:57:56.440Z,1026.76
2018-01-27T00:59:05.271Z,1026.73
2018-01-27T01:00:14.108Z,1026.77
2018-01-27T01:01:23.135Z,1026.81
2018-01-27T01:02:31.965Z,1026.78
2018-01-27T01:03:40.795Z,1026.79
2018-01-27T01:04:49.626Z,1026.77
2018-01-27T01:05:58.458Z,1026.77
2018-01-27T01:07:07.542Z,1026.75
2018-01-27T01:08:16.374Z,1026.75
2018-01-27T01:09:25.201Z,1026.8
2018-01-27T01:10:34.030Z,1026.81
2018-01-27T01:11:42.861Z,1026.82
2018-01-27T01:12:51.992Z,1026.81
2018-01-27T01:14:00.824Z,1026.82
2018-01-27T01:15:09.925Z,1026.78
2018-01-27T01:16:18.759Z,1026.79
2018-01-27T01:17:27.861Z,1026.78
2018-01-27T01:18:37.220Z,1026.79
2018-01-27T01:19:46.049Z,1026.79
2018-01-27T01:20:54.878Z,1026.78
2018-01-27T01:22:03.709Z,1026.8
2018-01-27T01:23:12.544Z,1026.75
2018-01-27T01:24:21.849Z,1026.72
2018-01-27T01:25:30.680Z,1026.74
2018-01-27T01:26:39.510Z,1026.79
2018-01-27T01:27:48.337Z,1026.78
2018-01-27T01:28:57.170Z,1026.78
2018-01-27T01:30:06.381Z,1026.85
2018-01-27T01:31:15.211Z,1026.88
2018-01-27T01:32:24.039Z,1026.83
2018-01-27T01:33:32.874Z,1026.84
2018-01-27T01:34:41.706Z,1026.85
2018-01-27T01:35:51.435Z,1026.87
2018-01-27T01:37:00.267Z,1026.84
2018-01-27T01:38:09.097Z,1026.85
2018-01-27T01:39:17.927Z,1026.81
2018-01-27T01:40:26.757Z,1026.85
2018-01-27T01:41:35.885Z,1026.83
2018-01-27T01:42:44.718Z,1026.82
2018-01-27T01:43:53.551Z,1026.83
2018-01-27T01:45:02.669Z,1026.84
2018-01-27T01:46:11.493Z,1026.84
2018-01-27T01:47:20.323Z,1026.9
2018-01-27T01:48:29.153Z,1026.82
2018-01-27T01:49:37.985Z,1026.86
2018-01-27T01:50:46.816Z,1026.88
2018-01-27T01:51:55.646Z,1026.85
2018-01-27T01:53:04.776Z,1026.85
2018-01-27T01:54:13.891Z,1026.89
2018-01-27T01:55:22.993Z,1026.87
2018-01-27T01:56:31.825Z,1026.85
2018-01-27T01:57:40.656Z,1026.88
2018-01-27T01:58:49.889Z,1026.91
2018-01-27T01:59:58.718Z,1026.87
2018-01-27T02:01:07.548Z,1026.85
2018-01-27T02:02:16.379Z,1026.87
2018-01-27T02:03:25.230Z,1026.86
2018-01-27T02:04:34.059Z,1026.86
2018-01-27T02:05:42.889Z,1026.86
2018-01-27T02:06:51.719Z,1026.83
2018-01-27T02:08:00.548Z,1026.88
2018-01-27T02:09:09.379Z,1026.89
2018-01-27T02:10:19.011Z,1026.86
2018-01-27T02:11:27.842Z,1026.88
2018-01-27T02:12:36.674Z,1026.93
2018-01-27T02:13:45.508Z,1026.88
2018-01-27T02:14:54.331Z,1026.86
2018-01-27T02:16:03.163Z,1026.94
2018-01-27T02:17:11.996Z,1026.93
2018-01-27T02:18:20.826Z,1026.95
2018-01-27T02:19:29.657Z,1026.95
2018-01-27T02:20:38.487Z,1026.99
2018-01-27T02:21:47.615Z,1026.99
2018-01-27T02:22:56.446Z,1027.02
2018-01-27T02:24:05.275Z,1027.02
2018-01-27T02:25:14.105Z,1027.02
2018-01-27T02:26:22.937Z,1027.02
2018-01-27T02:27:33.020Z,1027.03
2018-01-27T02:28:42.126Z,1027.06
2018-01-27T02:29:50.956Z,1027.11
2018-01-27T02:30:59.785Z,1027.07
2018-01-27T02:32:08.621Z,1027.05
2018-01-27T02:33:17.448Z,1027.09
2018-01-27T02:34:26.280Z,1027.07
2018-01-27T02:35:35.110Z,1027.02
2018-01-27T02:36:43.942Z,1027.05
2018-01-27T02:37:52.772Z,1027.01
2018-01-27T02:39:01.599Z,1027.04
2018-01-27T02:40:10.430Z,1027.03
2018-01-27T02:41:19.262Z,1027.02
2018-01-27T02:42:28.368Z,1027.01
2018-01-27T02:43:37.202Z,1027.04
2018-01-27T02:44:46.305Z,1027.02
2018-01-27T02:45:55.136Z,1027.01
2018-01-27T02:47:03.966Z,1027.04
2018-01-27T02:48:12.795Z,1027.04
2018-01-27T02:49:21.627Z,1027.05
2018-01-27T02:50:30.609Z,1027.12
2018-01-27T02:51:39.447Z,1027.08
2018-01-27T02:52:48.553Z,1027.11
2018-01-27T02:53:57.380Z,1027.11
2018-01-27T02:55:06.209Z,1027.12
2018-01-27T02:56:15.339Z,1027.16
2018-01-27T02:57:24.168Z,1027.17
2018-01-27T02:58:32.999Z,1027.17
2018-01-27T02:59:41.882Z,1027.17
2018-01-27T03:00:50.712Z,1027.17
2018-01-27T03:01:59.542Z,1027.19
2018-01-27T03:03:08.376Z,1027.18
2018-01-27T03:04:17.208Z,1027.18
2018-01-27T03:05:26.037Z,1027.22
2018-01-27T03:06:34.869Z,1027.23
2018-01-27T03:07:43.796Z,1027.27
2018-01-27T03:08:52.628Z,1027.23
2018-01-27T03:10:01.463Z,1027.27
2018-01-27T03:11:10.566Z,1027.24
2018-01-27T03:12:19.398Z,1027.31
2018-01-27T03:13:28.329Z,1027.31
2018-01-27T03:14:37.160Z,1027.41
2018-01-27T03:15:45.991Z,1027.36
2018-01-27T03:16:54.822Z,1027.34
2018-01-27T03:18:03.654Z,1027.35
2018-01-27T03:19:12.484Z,1027.38
2018-01-27T03:20:21.312Z,1027.37
2018-01-27T03:21:30.415Z,1027.41
2018-01-27T03:22:39.245Z,1027.41
2018-01-27T03:23:48.357Z,1027.43
2018-01-27T03:24:57.182Z,1027.41
2018-01-27T03:26:06.014Z,1027.44
2018-01-27T03:27:14.844Z,1027.41
2018-01-27T03:28:23.676Z,1027.5
2018-01-27T03:29:32.505Z,1027.48
2018-01-27T03:30:41.386Z,1027.47
2018-01-27T03:31:50.239Z,1027.48
2018-01-27T03:32:59.342Z,1027.5
2018-01-27T03:34:08.172Z,1027.49
2018-01-27T03:35:17.052Z,1027.49
2018-01-27T03:36:26.232Z,1027.45
2018-01-27T03:37:35.063Z,1027.53
2018-01-27T03:38:43.895Z,1027.51
2018-01-27T03:39:52.725Z,1027.55
2018-01-27T03:41:01.557Z,1027.52
2018-01-27T03:42:10.389Z,1027.57
2018-01-27T03:43:19.219Z,1027.59
2018-01-27T03:44:28.053Z,1027.62
2018-01-27T03:45:37.154Z,1027.69
2018-01-27T03:46:45.983Z,1027.67
2018-01-27T03:47:54.863Z,1027.7
2018-01-27T03:49:03.695Z,1027.74
2018-01-27T03:50:12.526Z,1027.81
2018-01-27T03:51:21.355Z,1027.81
2018-01-27T03:52:30.184Z,1027.83
2018-01-27T03:53:39.014Z,1027.79
2018-01-27T03:54:47.846Z,1027.79
2018-01-27T03:55:56.676Z,1027.78
2018-01-27T03:57:05.505Z,1027.78
2018-01-27T03:58:14.337Z,1027.8
2018-01-27T03:59:23.316Z,1027.78
2018-01-27T04:00:32.419Z,1027.81
2018-01-27T04:01:41.248Z,1027.82
2018-01-27T04:02:50.079Z,1027.81
2018-01-27T04:03:59.183Z,1027.78
2018-01-27T04:05:08.116Z,1027.83
2018-01-27T04:06:16.949Z,1027.84
2018-01-27T04:07:26.053Z,1027.81
2018-01-27T04:08:34.885Z,1027.83
2018-01-27T04:09:43.714Z,1027.79
2018-01-27T04:10:52.692Z,1027.83
2018-01-27T04:12:01.796Z,1027.84
2018-01-27T04:13:10.899Z,1027.83
2018-01-27T04:14:19.731Z,1027.82
2018-01-27T04:15:28.840Z,1027.86
2018-01-27T04:16:37.720Z,1027.88
2018-01-27T04:17:46.550Z,1027.87
2018-01-27T04:18:55.379Z,1027.9
2018-01-27T04:20:04.208Z,1027.94
2018-01-27T04:21:13.039Z,1027.99
2018-01-27T04:22:21.868Z,1028.03
2018-01-27T04:23:30.698Z,1028.1
2018-01-27T04:24:39.525Z,1028.1
2018-01-27T04:25:48.356Z,1028.14
2018-01-27T04:26:57.184Z,1028.18
2018-01-27T04:28:06.070Z,1028.19
2018-01-27T04:29:14.898Z,1028.24
2018-01-27T04:30:23.728Z,1028.23
2018-01-27T04:31:32.558Z,1028.24
2018-01-27T04:32:41.388Z,1028.21
2018-01-27T04:33:50.368Z,1028.26
2018-01-27T04:34:59.195Z,1028.21
2018-01-27T04:36:08.026Z,1028.22
2018-01-27T04:37:16.858Z,1028.19
2018-01-27T04:38:25.686Z,1028.23
2018-01-27T04:39:34.665Z,1028.22
2018-01-27T04:40:43.493Z,1028.22
2018-01-27T04:41:52.321Z,1028.23
2018-01-27T04:43:01.148Z,1028.26
2018-01-27T04:44:09.978Z,1028.27
2018-01-27T04:45:18.909Z,1028.26
2018-01-27T04:46:27.737Z,1028.31
2018-01-27T04:47:36.565Z,1028.29
2018-01-27T04:48:45.394Z,1028.33
2018-01-27T04:49:54.224Z,1028.33
2018-01-27T04:51:03.104Z,1028.38
2018-01-27T04:52:11.933Z,1028.41
2018-01-27T04:53:20.765Z,1028.43
2018-01-27T04:54:29.594Z,1028.42
2018-01-27T04:55:38.698Z,1028.45
2018-01-27T04:56:47.686Z,1028.47
2018-01-27T04:57:56.515Z,1028.5
2018-01-27T04:59:05.346Z,1028.53
2018-01-27T05:00:14.448Z,1028.53
2018-01-27T05:01:23.552Z,1028.53
2018-01-27T05:02:32.431Z,1028.52
2018-01-27T05:03:41.260Z,1028.53
2018-01-27T05:04:50.087Z,1028.55
2018-01-27T05:05:58.916Z,1028.55
2018-01-27T05:07:07.744Z,1028.53
2018-01-27T05:08:16.873Z,1028.59
2018-01-27T05:09:25.704Z,1028.56
2018-01-27T05:10:34.534Z,1028.56
2018-01-27T05:11:43.636Z,1028.57
2018-01-27T05:12:52.739Z,1028.57
2018-01-27T05:14:01.818Z,1028.57
2018-01-27T05:15:10.649Z,1028.55
2018-01-27T05:16:19.474Z,1028.54
2018-01-27T05:17:28.301Z,1028.54
2018-01-27T05:18:37.127Z,1028.55
2018-01-27T05:19:45.955Z,1028.56
2018-01-27T05:20:54.784Z,1028.55
2018-01-27T05:22:03.614Z,1028.56
2018-01-27T05:23:12.442Z,1028.56
2018-01-27T05:24:21.272Z,1028.6
2018-01-27T05:25:30.151Z,1028.62
2018-01-27T05:26:39.252Z,1028.59
2018-01-27T05:27:48.081Z,1028.6
2018-01-27T05:28:56.911Z,1028.65
2018-01-27T05:30:05.742Z,1028.61
2018-01-27T05:31:14.570Z,1028.64
2018-01-27T05:32:23.398Z,1028.68
2018-01-27T05:33:32.228Z,1028.7
2018-01-27T05:34:41.057Z,1028.74
2018-01-27T05:35:50.156Z,1028.74
2018-01-27T05:36:59.136Z,1028.76
2018-01-27T05:38:07.964Z,1028.72
2018-01-27T05:39:16.795Z,1028.72
2018-01-27T05:40:26.182Z,1028.72
2018-01-27T05:41:35.011Z,1028.7
2018-01-27T05:42:43.889Z,1028.71
2018-01-27T05:43:52.720Z,1028.7
2018-01-27T05:45:01.547Z,1028.73
2018-01-27T05:46:10.375Z,1028.69
2018-01-27T05:47:19.206Z,1028.75
2018-01-27T05:48:28.036Z,1028.68
2018-01-27T05:49:36.864Z,1028.7
2018-01-27T05:50:45.694Z,1028.71
2018-01-27T05:51:54.524Z,1028.7
2018-01-27T05:53:03.354Z,1028.67
2018-01-27T05:54:12.486Z,1028.69
2018-01-27T05:55:21.318Z,1028.67
2018-01-27T05:56:30.147Z,1028.7
2018-01-27T05:57:38.976Z,1028.74
2018-01-27T05:58:47.809Z,1028.72
2018-01-27T05:59:56.638Z,1028.74
2018-01-27T06:01:05.468Z,1028.73
2018-01-27T06:02:14.297Z,1028.73
2018-01-27T06:03:23.127Z,1028.73
2018-01-27T06:04:32.241Z,1028.76
2018-01-27T06:05:41.371Z,1028.78
2018-01-27T06:06:50.202Z,1028.85
2018-01-27T06:07:59.031Z,1028.81
2018-01-27T06:09:07.860Z,1028.82
2018-01-27T06:10:16.690Z,1028.9
2018-01-27T06:11:25.842Z,1028.91
2018-01-27T06:12:34.672Z,1028.96
2018-01-27T06:13:43.500Z,1029
2018-01-27T06:14:52.604Z,1029.03
2018-01-27T06:16:01.705Z,1029.02
2018-01-27T06:17:10.539Z,1029.05
2018-01-27T06:18:19.375Z,1029.05
2018-01-27T06:19:28.200Z,1029.02
2018-01-27T06:20:37.028Z,1029.01
2018-01-27T06:21:45.858Z,1029.03
2018-01-27T06:22:54.787Z,1029.02
2018-01-27T06:24:03.617Z,1029
2018-01-27T06:25:12.445Z,1029.02
2018-01-27T06:26:21.274Z,1029.03
2018-01-27T06:27:30.104Z,1029.03
2018-01-27T06:28:39.511Z,1029.01
2018-01-27T06:29:48.345Z,1029.08
2018-01-27T06:30:57.178Z,1029.07
2018-01-27T06:32:06.279Z,1029.11
2018-01-27T06:33:15.389Z,1029.13
2018-01-27T06:34:24.369Z,1029.17
2018-01-27T06:35:33.199Z,1029.23
2018-01-27T06:36:42.027Z,1029.22
2018-01-27T06:37:50.858Z,1029.23
2018-01-27T06:38:59.687Z,1029.24
2018-01-27T06:40:08.516Z,1029.23
2018-01-27T06:41:17.346Z,1029.18
2018-01-27T06:42:26.175Z,1029.13
2018-01-27T06:43:35.010Z,1029.16
2018-01-27T06:44:43.837Z,1029.12
2018-01-27T06:45:53.091Z,1029.12
2018-01-27T06:47:01.922Z,1029.12
2018-01-27T06:48:10.752Z,1029.13
2018-01-27T06:49:19.583Z,1029.12
2018-01-27T06:50:28.412Z,1029.17
2018-01-27T06:51:37.389Z,1029.13
2018-01-27T06:52:46.219Z,1029.1
2018-01-27T06:53:55.327Z,1029.09
2018-01-27T06:55:04.156Z,1029.09
2018-01-27T06:56:12.984Z,1029.12
2018-01-27T06:57:22.336Z,1029.13
2018-01-27T06:58:31.166Z,1029.17
2018-01-27T06:59:39.996Z,1029.23
2018-01-27T07:00:48.825Z,1029.24
2018-01-27T07:01:57.654Z,1029.32
2018-01-27T07:03:06.634Z,1029.34
2018-01-27T07:04:15.463Z,1029.36
2018-01-27T07:05:24.293Z,1029.34
2018-01-27T07:06:33.121Z,1029.37
2018-01-27T07:07:41.952Z,1029.33
2018-01-27T07:08:50.831Z,1029.45
2018-01-27T07:09:59.661Z,1029.42
2018-01-27T07:11:08.490Z,1029.42
2018-01-27T07:12:17.323Z,1029.45
2018-01-27T07:13:26.150Z,1029.43
2018-01-27T07:14:35.281Z,1029.44
2018-01-27T07:15:44.119Z,1029.43
2018-01-27T07:16:53.247Z,1029.42
2018-01-27T07:18:02.055Z,1029.48
2018-01-27T07:19:10.887Z,1029.48
2018-01-27T07:20:19.916Z,1029.53
2018-01-27T07:21:28.745Z,1029.56
2018-01-27T07:22:37.848Z,1029.56
2018-01-27T07:23:46.678Z,1029.57
2018-01-27T07:24:55.508Z,1029.57
2018-01-27T07:26:04.338Z,1029.59
2018-01-27T07:27:13.166Z,1029.59
2018-01-27T07:28:21.998Z,1029.61
2018-01-27T07:29:30.828Z,1029.64
2018-01-27T07:30:39.659Z,1029.62
2018-01-27T07:31:48.489Z,1029.61
2018-01-27T07:32:57.318Z,1029.65
2018-01-27T07:34:06.146Z,1029.66
2018-01-27T07:35:14.977Z,1029.69
2018-01-27T07:36:23.807Z,1029.64
2018-01-27T07:37:32.788Z,1029.7
2018-01-27T07:38:41.619Z,1029.7
2018-01-27T07:39:50.451Z,1029.69
2018-01-27T07:40:59.282Z,1029.75
2018-01-27T07:42:08.385Z,1029.78
2018-01-27T07:43:17.314Z,1029.78
2018-01-27T07:44:26.142Z,1029.75
2018-01-27T07:45:34.976Z,1029.71
2018-01-27T07:46:43.810Z,1029.75
2018-01-27T07:47:52.644Z,1029.79
2018-01-27T07:49:01.523Z,1029.79
2018-01-27T07:50:10.354Z,1029.8
2018-01-27T07:51:19.183Z,1029.89
2018-01-27T07:52:28.012Z,1029.85
2018-01-27T07:53:36.846Z,1029.88
2018-01-27T07:54:45.774Z,1029.9
2018-01-27T07:55:54.604Z,1029.87
2018-01-27T07:57:03.435Z,1029.87
2018-01-27T07:58:12.544Z,1029.86
2018-01-27T07:59:21.373Z,1029.88
2018-01-27T08:00:30.254Z,1029.86
2018-01-27T08:01:39.081Z,1029.82
2018-01-27T08:02:47.912Z,1029.88
2018-01-27T08:03:56.746Z,1029.83
2018-01-27T08:05:05.574Z,1029.84
2018-01-27T08:06:14.802Z,1029.8
2018-01-27T08:07:23.631Z,1029.81
2018-01-27T08:08:32.460Z,1029.86
2018-01-27T08:09:41.292Z,1029.86
2018-01-27T08:10:50.125Z,1029.92
2018-01-27T08:11:59.106Z,1029.84
2018-01-27T08:13:07.940Z,1029.84
2018-01-27T08:14:16.764Z,1029.91
2018-01-27T08:15:25.594Z,1029.86
2018-01-27T08:16:34.426Z,1029.9
2018-01-27T08:17:43.558Z,1029.9
2018-01-27T08:18:52.385Z,1029.9
2018-01-27T08:20:01.217Z,1029.87
2018-01-27T08:21:10.048Z,1029.89
2018-01-27T08:22:18.880Z,1029.88
2018-01-27T08:23:28.060Z,1029.86
2018-01-27T08:24:36.894Z,1029.87
2018-01-27T08:25:45.725Z,1029.89
2018-01-27T08:26:54.556Z,1029.92
2018-01-27T08:28:03.388Z,1029.92
2018-01-27T08:29:12.218Z,1029.99
2018-01-27T08:30:21.047Z,1029.95
2018-01-27T08:31:29.877Z,1029.96
2018-01-27T08:32:38.707Z,1029.98
2018-01-27T08:33:47.537Z,1029.96
2018-01-27T08:34:56.467Z,1030
2018-01-27T08:36:05.298Z,1030
2018-01-27T08:37:14.401Z,1029.96
2018-01-27T08:38:23.231Z,1029.96
2018-01-27T08:39:32.061Z,1029.91
2018-01-27T08:40:40.991Z,1029.97
2018-01-27T08:41:49.819Z,1030
2018-01-27T08:42:58.923Z,1030.04
2018-01-27T08:44:07.760Z,1030.04
2018-01-27T08:45:16.589Z,1030.05
2018-01-27T08:46:25.419Z,1030.02
2018-01-27T08:47:34.249Z,1030.01
2018-01-27T08:48:43.078Z,1029.96
2018-01-27T08:49:51.906Z,1030.02
2018-01-27T08:51:00.736Z,1029.99
2018-01-27T08:52:09.817Z,1029.99
2018-01-27T08:53:18.647Z,1029.99
2018-01-27T08:54:27.477Z,1030.04
2018-01-27T08:55:36.307Z,1029.98
2018-01-27T08:56:45.138Z,1029.97
2018-01-27T08:57:54.279Z,1030.03
2018-01-27T08:59:03.666Z,1030.06
2018-01-27T09:00:12.497Z,1030.05
2018-01-27T09:01:21.328Z,1030.03
2018-01-27T09:02:30.157Z,1030.03
2018-01-27T09:03:39.138Z,1030.02
2018-01-27T09:04:47.965Z,1030.06
2018-01-27T09:05:56.796Z,1030.09
2018-01-27T09:07:05.625Z,1030.14
2018-01-27T09:08:14.456Z,1030.18
2018-01-27T09:09:23.436Z,1030.15
2018-01-27T09:10:32.316Z,1030.14
2018-01-27T09:11:41.097Z,1030.06
2018-01-27T09:12:49.929Z,1030
2018-01-27T09:13:58.789Z,1030.01
2018-01-27T09:15:07.740Z,1030.02
2018-01-27T09:16:16.570Z,1030.05
2018-01-27T09:17:25.402Z,1030.13
2018-01-27T09:18:34.233Z,1030.19
2018-01-27T09:19:43.342Z,1030.21
2018-01-27T09:20:52.176Z,1030.24
2018-01-27T09:22:01.006Z,1030.27
2018-01-27T09:23:09.837Z,1030.3
2018-01-27T09:24:18.666Z,1030.33
2018-01-27T09:25:27.495Z,1030.31
2018-01-27T09:26:36.478Z,1030.31
2018-01-27T09:27:45.310Z,1030.22
2018-01-27T09:28:54.144Z,1030.27
2018-01-27T09:30:02.987Z,1030.24
2018-01-27T09:31:11.814Z,1030.25
2018-01-27T09:32:20.645Z,1030.25
2018-01-27T09:33:29.477Z,1030.21
2018-01-27T09:34:38.310Z,1030.24
2018-01-27T09:35:47.144Z,1030.12
2018-01-27T09:36:55.979Z,1030.27
2018-01-27T09:38:04.960Z,1030.21
2018-01-27T09:39:13.787Z,1030.21
2018-01-27T09:40:22.617Z,1030.16
2018-01-27T09:41:31.718Z,1030.1
2018-01-27T09:42:40.610Z,1030.14
2018-01-27T09:43:49.658Z,1030.11
2018-01-27T09:44:58.488Z,1030.11
2018-01-27T09:46:07.321Z,1030.13
2018-01-27T09:47:16.153Z,1030.17
2018-01-27T09:48:24.984Z,1030.25
2018-01-27T09:49:33.964Z,1030.27
2018-01-27T09:50:42.796Z,1030.3
2018-01-27T09:51:51.629Z,1030.23
2018-01-27T09:53:00.455Z,1030.34
2018-01-27T09:54:09.285Z,1030.28
2018-01-27T09:55:18.117Z,1030.2
2018-01-27T09:56:26.985Z,1030.26
2018-01-27T09:57:35.815Z,1030.3
2018-01-27T09:58:44.645Z,1030.27
2018-01-27T09:59:53.476Z,1030.29
2018-01-27T10:01:02.609Z,1030.26
2018-01-27T10:02:11.438Z,1030.27
2018-01-27T10:03:20.271Z,1030.21
2018-01-27T10:04:29.101Z,1030.21
2018-01-27T10:05:37.932Z,1030.23
2018-01-27T10:06:46.762Z,1030.25
2018-01-27T10:07:55.590Z,1030.2
2018-01-27T10:09:04.420Z,1030.2
2018-01-27T10:10:13.250Z,1030.24
2018-01-27T10:11:22.082Z,1030.25
2018-01-27T10:12:31.013Z,1030.28
2018-01-27T10:13:39.845Z,1030.3
2018-01-27T10:14:48.678Z,1030.3
2018-01-27T10:15:57.780Z,1030.24
2018-01-27T10:17:06.609Z,1030.26
2018-01-27T10:18:15.440Z,1030.3
2018-01-27T10:19:24.272Z,1030.29
2018-01-27T10:20:33.101Z,1030.3
2018-01-27T10:21:41.931Z,1030.2
2018-01-27T10:22:51.057Z,1030.22
2018-01-27T10:23:59.889Z,1030.23
2018-01-27T10:25:08.992Z,1030.29
2018-01-27T10:26:17.825Z,1030.31
2018-01-27T10:27:26.657Z,1030.37
2018-01-27T10:28:35.489Z,1030.45
2018-01-27T10:29:44.421Z,1030.41
2018-01-27T10:30:53.261Z,1030.43
2018-01-27T10:32:02.088Z,1030.46
2018-01-27T10:33:10.921Z,1030.49
2018-01-27T10:34:19.757Z,1030.46
2018-01-27T10:35:28.740Z,1030.43
2018-01-27T10:36:37.571Z,1030.43
2018-01-27T10:37:46.406Z,1030.44
2018-01-27T10:38:55.234Z,1030.4
2018-01-27T10:40:04.063Z,1030.42
2018-01-27T10:41:12.947Z,1030.38
2018-01-27T10:42:21.779Z,1030.4
2018-01-27T10:43:30.613Z,1030.39
2018-01-27T10:44:39.454Z,1030.33
2018-01-27T10:45:48.558Z,1030.37
2018-01-27T10:46:57.390Z,1030.38
2018-01-27T10:48:06.221Z,1030.41
2018-01-27T10:49:15.052Z,1030.32
2018-01-27T10:50:23.883Z,1030.24
2018-01-27T10:51:32.716Z,1030.23
2018-01-27T10:52:41.598Z,1030.18
2018-01-27T10:53:50.431Z,1030.24
2018-01-27T10:54:59.274Z,1030.23
2018-01-27T10:56:08.143Z,1030.27
2018-01-27T10:57:16.974Z,1030.19
2018-01-27T10:58:25.807Z,1030.28
2018-01-27T10:59:34.913Z,1030.27
2018-01-27T11:00:43.746Z,1030.25
2018-01-27T11:01:52.579Z,1030.3
2018-01-27T11:03:01.561Z,1030.3
2018-01-27T11:04:10.394Z,1030.29
2018-01-27T11:05:19.229Z,1030.28
2018-01-27T11:06:28.096Z,1030.24
2018-01-27T11:07:36.891Z,1030.22
2018-01-27T11:08:45.723Z,1030.24
2018-01-27T11:09:54.555Z,1030.2
2018-01-27T11:11:03.387Z,1030.23
2018-01-27T11:12:12.220Z,1030.22
2018-01-27T11:13:21.050Z,1030.22
2018-01-27T11:14:30.155Z,1030.24
2018-01-27T11:15:38.986Z,1030.24
2018-01-27T11:16:47.819Z,1030.29
2018-01-27T11:17:56.651Z,1030.2
2018-01-27T11:19:05.483Z,1030.19
2018-01-27T11:20:14.318Z,1030.22
2018-01-27T11:21:23.149Z,1030.18
2018-01-27T11:22:31.982Z,1030.16
2018-01-27T11:23:41.140Z,1030.16
2018-01-27T11:24:50.281Z,1030.15
2018-01-27T11:25:59.081Z,1030.16
2018-01-27T11:27:07.911Z,1030.12
2018-01-27T11:28:16.741Z,1030.15
2018-01-27T11:29:25.586Z,1030.14
2018-01-27T11:30:34.406Z,1030.11
2018-01-27T11:31:43.235Z,1030.2
2018-01-27T11:32:52.065Z,1030.13
2018-01-27T11:34:00.901Z,1030.17
2018-01-27T11:35:09.839Z,1030.09
2018-01-27T11:36:18.678Z,1030.07
2018-01-27T11:37:27.518Z,1030.06
2018-01-27T11:38:36.358Z,1030.04
2018-01-27T11:39:45.199Z,1030.03
2018-01-27T11:40:54.039Z,1029.98
2018-01-27T11:42:02.881Z,1029.97
2018-01-27T11:43:11.720Z,1029.99
2018-01-27T11:44:20.558Z,1030.03
2018-01-27T11:45:29.399Z,1030
2018-01-27T11:46:38.290Z,1029.99
2018-01-27T11:47:47.132Z,1030.01
2018-01-27T11:48:55.977Z,1030.03
2018-01-27T11:50:04.820Z,1029.99
2018-01-27T11:51:13.662Z,1030.01
2018-01-27T11:52:22.503Z,1029.92
2018-01-27T11:53:31.348Z,1029.95
2018-01-27T11:54:40.463Z,1029.91
2018-01-27T11:55:49.303Z,1029.9
2018-01-27T11:56:58.147Z,1029.9
2018-01-27T11:58:06.977Z,1029.89
2018-01-27T11:59:15.813Z,1029.88
2018-01-27T12:00:24.917Z,1029.81
2018-01-27T12:01:33.749Z,1029.85
2018-01-27T12:02:42.580Z,1029.75
2018-01-27T12:03:51.415Z,1029.73
2018-01-27T12:05:00.250Z,1029.7
2018-01-27T12:06:09.105Z,1029.6
2018-01-27T12:07:18.287Z,1029.64
2018-01-27T12:08:27.396Z,1029.62
2018-01-27T12:09:36.235Z,1029.65
2018-01-27T12:10:45.062Z,1029.66
2018-01-27T12:11:53.895Z,1029.67
2018-01-27T12:13:02.728Z,1029.65
2018-01-27T12:14:11.625Z,1029.68
2018-01-27T12:15:20.456Z,1029.69
2018-01-27T12:16:29.566Z,1029.74
2018-01-27T12:17:38.400Z,1029.79
2018-01-27T12:18:47.242Z,1029.76
2018-01-27T12:19:56.073Z,1029.83
2018-01-27T12:21:05.005Z,1029.76
2018-01-27T12:22:13.839Z,1029.75
2018-01-27T12:23:22.671Z,1029.76
2018-01-27T12:24:31.505Z,1029.73
2018-01-27T12:25:40.336Z,1029.78
2018-01-27T12:26:49.273Z,1029.65
2018-01-27T12:27:58.106Z,1029.67
2018-01-27T12:29:06.940Z,1029.64
2018-01-27T12:30:15.776Z,1029.63
2018-01-27T12:31:24.616Z,1029.54
2018-01-27T12:32:33.598Z,1029.59
2018-01-27T12:33:42.703Z,1029.6
2018-01-27T12:34:51.533Z,1029.56
2018-01-27T12:36:00.366Z,1029.63
2018-01-27T12:37:09.196Z,1029.55
2018-01-27T12:38:18.179Z,1029.57
2018-01-27T12:39:27.012Z,1029.54
2018-01-27T12:40:35.852Z,1029.5
2018-01-27T12:41:44.685Z,1029.48
2018-01-27T12:42:53.516Z,1029.45
2018-01-27T12:44:02.920Z,1029.43
2018-01-27T12:45:11.749Z,1029.38
2018-01-27T12:46:20.581Z,1029.39
2018-01-27T12:47:29.411Z,1029.36
2018-01-27T12:48:38.244Z,1029.39
2018-01-27T12:49:47.077Z,1029.4
2018-01-27T12:50:55.911Z,1029.35
2018-01-27T12:52:04.743Z,1029.28
2018-01-27T12:53:13.575Z,1029.32
2018-01-27T12:54:22.406Z,1029.37
2018-01-27T12:55:31.535Z,1029.32
2018-01-27T12:56:40.366Z,1029.35
2018-01-27T12:57:49.198Z,1029.36
2018-01-27T12:58:58.027Z,1029.35
2018-01-27T13:00:06.898Z,1029.37
2018-01-27T13:01:16.256Z,1029.3
2018-01-27T13:02:25.088Z,1029.32
2018-01-27T13:03:33.915Z,1029.22
2018-01-27T13:04:43.296Z,1029.25
2018-01-27T13:05:52.136Z,1029.27
2018-01-27T13:07:01.238Z,1029.23
2018-01-27T13:08:10.345Z,1029.21
2018-01-27T13:09:19.174Z,1029.22
2018-01-27T13:10:28.006Z,1029.2
2018-01-27T13:11:36.903Z,1029.21
2018-01-27T13:12:45.922Z,1029.26
2018-01-27T13:13:54.770Z,1029.2
2018-01-27T13:15:03.630Z,1029.22
2018-01-27T13:16:12.734Z,1029.23
2018-01-27T13:17:21.592Z,1029.22
2018-01-27T13:18:30.573Z,1029.19
2018-01-27T13:19:39.453Z,1029.17
2018-01-27T13:20:48.236Z,1029.22
2018-01-27T13:21:57.067Z,1029.23
2018-01-27T13:23:05.898Z,1029.16
2018-01-27T13:24:14.882Z,1029.17
2018-01-27T13:25:23.723Z,1029.16
2018-01-27T13:26:32.554Z,1029.16
2018-01-27T13:27:41.386Z,1029.18
2018-01-27T13:28:50.218Z,1029.15
2018-01-27T13:29:59.401Z,1029.16
2018-01-27T13:31:08.232Z,1029.17
2018-01-27T13:32:17.063Z,1029.2
2018-01-27T13:33:25.901Z,1029.13
2018-01-27T13:34:35.005Z,1029.12
2018-01-27T13:35:43.837Z,1029.11
2018-01-27T13:36:52.666Z,1029.13
2018-01-27T13:38:01.535Z,1029.09
2018-01-27T13:39:10.367Z,1029.08
2018-01-27T13:40:19.200Z,1029.03
2018-01-27T13:41:28.033Z,1029.09
2018-01-27T13:42:37.735Z,1029
2018-01-27T13:43:46.602Z,1029
2018-01-27T13:44:55.434Z,1028.97
2018-01-27T13:46:04.269Z,1029.05
2018-01-27T13:47:13.427Z,1028.94
2018-01-27T13:48:22.580Z,1029.02
2018-01-27T13:49:31.684Z,1029.03
2018-01-27T13:50:40.806Z,1029.05
2018-01-27T13:51:49.664Z,1029.03
2018-01-27T13:52:59.201Z,1029.12
2018-01-27T13:54:08.079Z,1029.1
2018-01-27T13:55:16.961Z,1029.09
2018-01-27T13:56:26.010Z,1029.11